Time;durP1;ratioP1;P1;durP2;ratioP2;P2;SDS_P1;SDS_P2;PMS_P1;PMS_P2;Temp;Humidity;BMP_temperature;BMP_pressure;BME280_temperature;BME280_humidity;BME280_pressure;Samples;Min_cycle;Max_cycle;Signal;HPM_P1;HPM_P2
2022/04/13 00:02:40;;;;;;;10.55;4.00;;;;;;;11.58;nan;101975.38;10399380;28;20046;-70
2022/04/13 00:07:42;;;;;;;9.38;4.65;;;;;;;11.54;nan;101963.88;10407729;28;20048;-70
2022/04/13 00:12:44;;;;;;;9.27;4.47;;;;;;;11.54;nan;101963.00;10422393;28;20037;-70
2022/04/13 00:17:45;;;;;;;9.88;4.28;;;;;;;11.47;nan;101939.22;10412314;28;20065;-71
2022/04/13 00:22:47;;;;;;;7.22;3.63;;;;;;;11.44;nan;101928.63;10404784;28;20076;-71
2022/04/13 00:27:48;;;;;;;8.82;3.92;;;;;;;11.53;nan;101955.97;10415174;28;20065;-70
2022/04/13 00:32:50;;;;;;;8.90;4.03;;;;;;;11.38;nan;101896.97;10413455;28;20741;-70
2022/04/13 00:37:52;;;;;;;9.45;4.18;;;;;;;11.41;nan;101914.50;10409668;28;20044;-70
2022/04/13 00:42:53;;;;;;;11.23;4.03;;;;;;;11.44;nan;101926.00;10412680;28;20041;-70
2022/04/13 00:47:58;;;;;;;8.20;3.88;;;;;;;11.37;nan;101900.41;10413909;28;20045;-70
2022/04/13 00:53:01;;;;;;;9.48;3.92;;;;;;;11.35;nan;101889.00;10421637;28;20567;-70
2022/04/13 00:58:05;;;;;;;7.78;3.85;;;;;;;11.31;nan;101871.38;10423234;28;20056;-69
2022/04/13 01:03:07;;;;;;;8.50;3.95;;;;;;;11.35;nan;101889.00;10415815;28;20052;-70
2022/04/13 01:08:11;;;;;;;9.25;4.28;;;;;;;11.35;nan;101894.25;10410592;28;20073;-70
2022/04/13 01:13:14;;;;;;;8.90;3.90;;;;;;;11.32;nan;101874.06;10413936;28;20087;-70
2022/04/13 01:18:18;;;;;;;8.27;4.20;;;;;;;11.30;nan;101867.88;10414198;28;20037;-69
2022/04/13 01:23:21;;;;;;;10.02;4.30;;;;;;;11.31;nan;101872.25;10407536;28;20057;-69
2022/04/13 01:28:23;;;;;;;10.10;3.85;;;;;;;11.30;nan;101870.50;10406938;28;20084;-70
2022/04/13 01:33:31;;;;;;;10.07;4.38;;;;;;;11.30;nan;101865.25;10411772;28;20045;-71
2022/04/13 01:38:33;;;;;;;9.68;3.85;;;;;;;11.26;nan;101854.59;10407959;28;20052;-70
2022/04/13 01:43:34;;;;;;;9.32;4.38;;;;;;;11.18;nan;101825.53;10404450;28;20079;-70
2022/04/13 01:48:36;;;;;;;11.00;4.57;;;;;;;11.04;nan;101777.91;10409342;28;20049;-70
2022/04/13 01:53:37;;;;;;;7.97;4.00;;;;;;;10.95;nan;101741.81;10411388;28;20049;-70
2022/04/13 01:58:39;;;;;;;9.40;4.35;;;;;;;10.88;nan;101707.53;10419248;28;20495;-69
2022/04/13 02:03:41;;;;;;;8.27;4.07;;;;;;;10.78;nan;101672.31;10410571;28;20098;-70
2022/04/13 02:08:42;;;;;;;12.10;4.30;;;;;;;10.70;nan;101643.25;10416518;28;20041;-70
2022/04/13 02:13:44;;;;;;;7.85;4.22;;;;;;;10.58;nan;101599.25;10408525;28;20048;-69
2022/04/13 02:18:46;;;;;;;8.55;4.25;;;;;;;10.44;nan;101537.72;10413702;28;20512;-70
2022/04/13 02:23:47;;;;;;;9.00;4.22;;;;;;;10.35;nan;101503.44;10420535;28;20049;-69
2022/04/13 02:28:49;;;;;;;6.97;3.42;;;;;;;10.32;nan;101495.44;10409519;28;20044;-70
2022/04/13 02:33:53;;;;;;;8.43;4.07;;;;;;;10.22;nan;101452.41;10413478;28;20090;-70
2022/04/13 02:38:55;;;;;;;11.55;3.85;;;;;;;10.12;nan;101405.88;10406965;28;20601;-70
2022/04/13 02:43:56;;;;;;;8.82;4.03;;;;;;;9.98;nan;101358.38;10419539;28;20519;-71
2022/04/13 02:48:58;;;;;;;11.10;3.80;;;;;;;9.93;nan;101342.56;10406281;28;20527;-70
2022/04/13 02:54:00;;;;;;;9.07;4.00;;;;;;;9.84;nan;101309.16;10412990;28;20049;-70
2022/04/13 02:59:01;;;;;;;8.40;3.80;;;;;;;9.78;nan;101292.44;10415444;28;20045;-69
2022/04/13 03:04:03;;;;;;;8.38;3.90;;;;;;;9.70;nan;101263.44;10416293;28;20183;-70
2022/04/13 03:09:05;;;;;;;8.00;4.07;;;;;;;9.64;nan;101226.66;10412950;28;20138;-69
2022/04/13 03:14:07;;;;;;;7.78;3.70;;;;;;;9.48;nan;101175.66;10413448;28;20041;-69
2022/04/13 03:19:08;;;;;;;11.65;4.05;;;;;;;9.33;nan;101114.28;10409654;28;20084;-70
2022/04/13 03:24:10;;;;;;;8.55;3.83;;;;;;;9.23;nan;101069.56;10408191;28;20061;-69
2022/04/13 03:29:12;;;;;;;8.82;4.03;;;;;;;9.03;nan;101002.88;10416424;28;20057;-70
2022/04/13 03:34:13;;;;;;;8.75;4.03;;;;;;;8.94;nan;100959.97;10397406;28;20049;-70
2022/04/13 03:39:16;;;;;;;7.28;3.58;;;;;;;8.90;nan;100940.69;10416511;28;20065;-70
2022/04/13 03:44:18;;;;;;;8.05;3.60;;;;;;;8.80;nan;100910.88;10411050;28;20060;-69
2022/04/13 03:49:20;;;;;;;9.13;4.25;;;;;;;8.69;nan;100867.91;10428007;28;20048;-70
2022/04/13 03:54:22;;;;;;;9.23;3.83;;;;;;;8.64;nan;100854.75;10418883;28;20060;-70
2022/04/13 03:59:24;;;;;;;8.15;4.15;;;;;;;8.58;nan;100825.00;10419059;28;20048;-71
2022/04/13 04:04:26;;;;;;;8.02;3.70;;;;;;;8.50;nan;100790.88;10415871;28;20045;-69
2022/04/13 04:09:28;;;;;;;9.98;3.97;;;;;;;8.49;nan;100796.94;10421587;28;20037;-70
2022/04/13 04:14:29;;;;;;;9.52;3.78;;;;;;;8.39;nan;100755.75;10417681;28;20064;-70
2022/04/13 04:19:31;;;;;;;8.02;3.75;;;;;;;8.27;nan;100704.16;10415546;28;20069;-70
2022/04/13 04:24:33;;;;;;;13.10;4.45;;;;;;;8.20;nan;100682.25;10403991;28;20701;-70
2022/04/13 04:29:35;;;;;;;11.38;4.60;;;;;;;8.20;nan;100679.66;10415029;28;20042;-70
2022/04/13 04:34:37;;;;;;;9.55;4.13;;;;;;;8.21;nan;100688.34;10420417;28;20079;-70
2022/04/13 04:39:38;;;;;;;10.95;4.60;;;;;;;8.18;nan;100678.75;10397191;28;20041;-71
2022/04/13 04:44:40;;;;;;;8.20;4.32;;;;;;;8.15;nan;100673.41;10413992;28;20680;-69
2022/04/13 04:49:43;;;;;;;9.38;4.22;;;;;;;8.10;nan;100648.97;10414536;28;20053;-70
2022/04/13 04:54:45;;;;;;;12.05;4.28;;;;;;;8.11;nan;100656.81;10413294;28;20045;-70
2022/04/13 04:59:47;;;;;;;19.17;4.50;;;;;;;8.13;nan;100670.75;10412082;28;20452;-68
2022/04/13 05:04:49;;;;;;;11.07;4.25;;;;;;;8.14;nan;100675.16;10409877;28;20339;-68
2022/04/13 05:09:50;;;;;;;9.68;4.72;;;;;;;8.17;nan;100692.63;10409928;28;20482;-69
2022/04/13 05:14:55;;;;;;;10.63;4.13;;;;;;;8.21;nan;100699.69;10399674;28;20045;-67
2022/04/13 05:19:57;;;;;;;10.60;4.45;;;;;;;8.29;nan;100733.78;10416342;28;20037;-67
2022/04/13 05:25:10;;;;;;;9.73;4.45;;;;;;;8.39;nan;100774.03;10401786;28;20044;-67
2022/04/13 05:30:15;;;;;;;9.68;4.35;;;;;;;8.46;nan;100804.69;10406666;28;21403;-69
2022/04/13 05:35:17;;;;;;;8.90;4.90;;;;;;;8.56;nan;100848.47;10413043;28;20045;-70
2022/04/13 05:40:20;;;;;;;9.63;4.65;;;;;;;8.65;nan;100882.63;10416495;28;20041;-68
2022/04/13 05:45:22;;;;;;;9.50;4.72;;;;;;;8.80;nan;100943.94;10408473;28;20045;-68
2022/04/13 05:50:23;;;;;;;11.02;5.22;;;;;;;9.02;nan;101035.06;10407483;28;20540;-67
2022/04/13 05:55:25;;;;;;;10.07;4.50;;;;;;;9.28;nan;101136.81;10418906;28;20037;-66
2022/04/13 06:00:27;;;;;;;11.25;5.07;;;;;;;9.56;nan;101249.97;10415202;28;20051;-66
2022/04/13 06:05:28;;;;;;;14.15;5.15;;;;;;;9.96;nan;101413.28;10408554;28;20982;-68
2022/04/13 06:10:30;;;;;;;10.05;4.93;;;;;;;10.34;nan;101562.72;10404292;28;20041;-69
2022/04/13 06:15:32;;;;;;;11.13;4.75;;;;;;;10.70;nan;101711.34;10406708;28;20049;-68
2022/04/13 06:20:33;;;;;;;11.02;5.10;;;;;;;11.06;nan;101857.47;10411217;28;20128;-70
2022/04/13 06:25:35;;;;;;;12.70;5.15;;;;;;;11.45;nan;102014.34;10398922;28;20071;-70
2022/04/13 06:30:37;;;;;;;11.68;4.82;;;;;;;11.91;nan;102200.38;10390241;28;20467;-70
2022/04/13 06:35:39;;;;;;;10.57;5.18;;;;;;;12.33;nan;102373.41;10411000;28;20347;-69
2022/04/13 06:40:40;;;;;;;10.07;5.63;;;;;;;12.71;nan;102526.25;10413246;28;20132;-70
2022/04/13 06:45:42;;;;;;;13.65;6.47;;;;;;;13.12;nan;102697.81;10414831;28;20049;-70
2022/04/13 06:50:43;;;;;;;13.30;6.22;;;;;;;13.36;nan;102799.53;10402264;28;20029;-70
2022/04/13 06:55:47;;;;;;;12.32;5.93;;;;;;;13.59;nan;102897.81;10392706;28;20128;-69
2022/04/13 07:00:49;;;;;;;12.48;5.97;;;;;;;13.89;nan;103021.81;10397966;28;20036;-70
2022/04/13 07:05:51;;;;;;;15.88;6.40;;;;;;;14.60;nan;103316.25;10400839;28;20496;-70
2022/04/13 07:10:52;;;;;;;13.60;5.65;;;;;;;14.83;nan;103415.72;10400648;28;20048;-70
2022/04/13 07:15:54;;;;;;;14.90;6.25;;;;;;;15.26;nan;103601.31;10398987;28;20055;-70
2022/04/13 07:20:57;;;;;;;13.27;6.20;;;;;;;15.63;nan;103750.75;10402417;28;20044;-70
2022/04/13 07:25:59;;;;;;;15.57;6.63;;;;;;;15.46;nan;103680.44;10410670;28;20416;-69
2022/04/13 07:31:01;;;;;;;15.90;7.75;;;;;;;15.41;nan;103669.69;10412408;28;20412;-69
2022/04/13 07:36:03;;;;;;;14.23;6.63;;;;;;;15.35;nan;103646.56;10416946;28;20067;-70
2022/04/13 07:41:04;;;;;;;14.93;7.13;;;;;;;15.30;nan;103623.47;10408155;28;20495;-70
2022/04/13 07:46:06;;;;;;;18.30;7.28;;;;;;;15.85;nan;103845.09;10407452;28;20056;-71
2022/04/13 07:51:07;;;;;;;13.48;6.75;;;;;;;16.76;nan;104224.63;10407264;28;20043;-72
2022/04/13 07:56:09;;;;;;;13.00;6.97;;;;;;;17.29;nan;104460.09;10419116;28;20044;-71
2022/04/13 08:01:11;;;;;;;16.40;7.18;;;;;;;17.46;nan;104530.69;10408057;28;20587;-70
2022/04/13 08:06:13;;;;;;;16.08;6.82;;;;;;;17.61;nan;104595.84;10406630;28;20515;-70
2022/04/13 08:11:14;;;;;;;19.30;7.72;;;;;;;18.19;nan;104850.66;10401317;28;20041;-71
2022/04/13 08:16:16;;;;;;;14.63;6.10;;;;;;;19.08;nan;105222.41;10409152;28;20045;-70
2022/04/13 08:21:18;;;;;;;15.13;6.32;;;;;;;19.58;nan;105439.41;10404807;28;20090;-71
2022/04/13 08:26:19;;;;;;;14.38;5.13;;;;;;;19.64;nan;105473.41;10418463;28;20670;-71
2022/04/13 08:31:21;;;;;;;10.27;4.63;;;;;;;19.70;nan;105486.13;10413881;28;20053;-71
2022/04/13 08:36:23;;;;;;;13.70;5.32;;;;;;;20.22;nan;105716.84;10411608;28;20061;-72
2022/04/13 08:41:36;;;;;;;12.52;5.20;;;;;;;20.39;nan;105779.94;10406727;28;20540;-71
2022/04/13 08:46:39;;;;;;;12.25;4.63;;;;;;;20.94;nan;106028.94;10407796;28;20128;-72
2022/04/13 08:51:41;;;;;;;10.32;4.55;;;;;;;21.41;nan;106233.38;10409572;28;20037;-71
2022/04/13 08:56:47;;;;;;;11.68;4.70;;;;;;;21.42;nan;106228.94;10404956;28;20431;-71
2022/04/13 09:02:47;;;;;;;11.85;4.45;;;;;;;21.14;nan;106104.72;10408818;28;20052;-71
2022/04/13 09:07:57;;;;;;;11.90;4.78;;;;;;;21.69;nan;106337.31;10409819;28;20048;-68
2022/04/13 09:12:59;;;;;;;13.82;4.30;;;;;;;22.02;nan;106476.25;10404241;28;20045;-69
2022/04/13 09:18:01;;;;;;;12.60;4.00;;;;;;;22.06;nan;106494.25;10406294;28;20175;-67
2022/04/13 09:23:04;;;;;;;8.25;3.85;;;;;;;22.63;nan;106737.19;10407016;28;20512;-68
2022/04/13 09:28:06;;;;;;;8.95;3.33;;;;;;;22.66;nan;106740.03;10409600;28;20625;-70
2022/04/13 09:33:07;;;;;;;7.45;3.03;;;;;;;22.94;nan;106864.72;10401543;28;20512;-67
2022/04/13 09:38:09;;;;;;;7.28;2.78;;;;;;;23.01;nan;106882.94;10402205;28;20448;-71
2022/04/13 09:43:13;;;;;;;7.15;2.30;;;;;;;23.11;nan;106917.47;10411494;28;20060;-72
2022/04/13 09:48:17;;;;;;;7.18;2.63;;;;;;;23.02;nan;106875.88;10404943;28;20497;-71
2022/04/13 09:53:20;;;;;;;6.35;2.00;;;;;;;22.60;nan;106679.13;10404002;28;20135;-72
2022/04/13 09:58:25;;;;;;;8.15;1.90;;;;;;;22.67;nan;106692.84;10405862;28;20060;-72
2022/04/13 10:03:26;;;;;;;9.13;1.83;;;;;;;22.98;nan;106823.03;10412560;28;20069;-71
2022/04/13 10:08:30;;;;;;;7.60;2.63;;;;;;;23.07;nan;106867.28;10409282;28;20338;-72
2022/04/13 10:13:34;;;;;;;10.65;2.40;;;;;;;23.35;nan;106975.09;10405390;28;21197;-72
2022/04/13 10:18:55;;;;;;;10.00;2.38;;;;;;;23.65;nan;107096.47;10409077;28;20048;-71
2022/04/13 10:23:56;;;;;;;10.20;3.08;;;;;;;22.69;nan;106657.38;10411626;28;20536;-72
2022/04/13 10:28:58;;;;;;;11.25;3.60;;;;;;;22.45;nan;106547.28;10403903;28;20037;-71
2022/04/13 10:34:00;;;;;;;9.13;3.25;;;;;;;22.45;nan;106527.69;10409245;28;20047;-73
2022/04/13 10:39:02;;;;;;;9.80;3.30;;;;;;;22.86;nan;106701.13;10413205;28;20045;-73
2022/04/13 10:44:04;;;;;;;11.85;4.03;;;;;;;22.97;nan;106747.25;10414180;28;20052;-73
2022/04/13 10:49:13;;;;;;;10.05;3.40;;;;;;;22.78;nan;106655.22;10408541;28;20076;-73
2022/04/13 10:54:18;;;;;;;11.13;3.77;;;;;;;22.98;nan;106732.09;10403152;28;20056;-73
2022/04/13 10:59:27;;;;;;;9.70;4.10;;;;;;;22.74;nan;106620.22;10409319;28;20079;-73
2022/04/13 11:04:32;;;;;;;11.07;3.70;;;;;;;22.94;nan;106693.59;10410158;28;20187;-73
2022/04/13 11:09:41;;;;;;;10.27;3.83;;;;;;;23.38;nan;106885.22;10379045;28;20504;-73
2022/04/13 11:14:50;;;;;;;9.48;3.45;;;;;;;22.89;nan;106663.88;10401742;28;20128;-75
2022/04/13 11:20:20;;;;;;;11.85;3.90;;;;;;;23.55;nan;106941.50;10399581;28;20557;-71
2022/04/13 11:25:46;;;;;;;12.00;4.18;;;;;;;23.81;nan;107048.41;10405102;28;20195;-70
2022/04/13 11:31:08;;;;;;;7.90;3.47;;;;;;;24.04;nan;107144.41;10404728;28;20131;-69
2022/04/13 11:36:10;;;;;;;9.70;4.43;;;;;;;23.95;nan;107088.50;10405487;28;20056;-69
2022/04/13 11:41:31;;;;;;;12.40;4.45;;;;;;;24.13;nan;107169.06;10404902;28;20045;-69
2022/04/13 11:46:39;;;;;;;10.90;5.03;;;;;;;23.58;nan;106910.47;10407484;28;20096;-69
2022/04/13 11:51:40;;;;;;;10.70;4.82;;;;;;;23.24;nan;106747.03;10402848;28;21245;-69
2022/04/13 11:56:51;;;;;;;16.02;4.35;;;;;;;23.30;nan;106758.09;10404949;28;20496;-69
2022/04/13 12:01:53;;;;;;;11.95;4.90;;;;;;;23.17;nan;106700.28;10399731;28;20056;-68
2022/04/13 12:06:55;;;;;;;12.55;5.47;;;;;;;23.34;nan;106770.81;10401507;28;20257;-68
2022/04/13 12:11:58;;;;;;;14.35;5.30;;;;;;;23.28;nan;106735.69;10405412;28;20044;-67
2022/04/13 12:17:02;;;;;;;12.55;6.03;;;;;;;23.40;nan;106778.28;10412276;28;20045;-68
2022/04/13 12:22:18;;;;;;;14.85;5.72;;;;;;;23.21;nan;106688.00;10413489;28;20052;-67
2022/04/13 12:27:19;;;;;;;13.98;5.07;;;;;;;23.02;nan;106601.34;10412741;28;20040;-69
2022/04/13 12:32:21;;;;;;;9.23;4.00;;;;;;;22.86;nan;106529.13;10413159;28;20414;-68
2022/04/13 12:37:23;;;;;;;13.63;4.47;;;;;;;22.82;nan;106503.03;10409543;28;20055;-69
2022/04/13 12:42:25;;;;;;;14.38;4.95;;;;;;;22.93;nan;106532.22;10410532;28;20061;-69
2022/04/13 12:47:26;;;;;;;9.27;4.50;;;;;;;22.79;nan;106479.75;10410047;28;20041;-74
2022/04/13 12:52:28;;;;;;;11.88;4.15;;;;;;;23.10;nan;106599.13;10408116;28;20639;-71
2022/04/13 12:57:30;;;;;;;10.40;4.25;;;;;;;23.08;nan;106595.44;10409780;28;20558;-69
2022/04/13 13:02:32;;;;;;;10.75;3.63;;;;;;;22.82;nan;106468.28;10409901;28;20673;-71
2022/04/13 13:07:36;;;;;;;10.13;4.22;;;;;;;22.90;nan;106505.31;10411168;28;20065;-71
2022/04/13 13:12:38;;;;;;;9.65;4.35;;;;;;;23.00;nan;106537.91;10408198;28;20064;-71
2022/04/13 13:17:42;;;;;;;7.70;3.40;;;;;;;22.55;nan;106337.69;10408687;28;20163;-72
2022/04/13 13:22:50;;;;;;;7.32;2.70;;;;;;;22.77;nan;106428.88;10408357;28;20132;-73
2022/04/13 13:27:55;;;;;;;7.80;2.70;;;;;;;23.06;nan;106544.53;10409298;28;20045;-72
2022/04/13 13:32:57;;;;;;;7.10;3.13;;;;;;;23.03;nan;106528.31;10407032;28;20040;-71
2022/04/13 13:38:10;;;;;;;8.73;3.60;;;;;;;22.68;nan;106365.97;10402287;28;20231;-71
2022/04/13 13:43:15;;;;;;;7.22;3.30;;;;;;;21.98;nan;106055.09;10404356;28;20048;-74
2022/04/13 13:48:24;;;;;;;8.65;3.50;;;;;;;21.81;nan;105975.91;10404944;28;20136;-74
2022/04/13 13:53:29;;;;;;;10.35;3.50;;;;;;;22.14;nan;106123.56;10403821;28;20049;-75
2022/04/13 13:58:30;;;;;;;11.85;3.80;;;;;;;21.98;nan;106032.81;10412500;28;20733;-73
2022/04/13 14:03:32;;;;;;;9.35;3.30;;;;;;;21.70;nan;105912.22;10412791;28;20049;-71
2022/04/13 14:08:34;;;;;;;6.47;2.15;;;;;;;21.65;nan;105887.06;10410276;28;20517;-75
2022/04/13 14:13:39;;;;;;;5.22;1.80;;;;;;;21.41;nan;105773.72;10412303;28;20072;-73
2022/04/13 14:18:41;;;;;;;7.43;2.08;;;;;;;21.25;nan;105703.66;10410281;28;20041;-73
2022/04/13 14:23:42;;;;;;;10.32;3.53;;;;;;;21.12;nan;105639.88;10415246;28;20137;-70
2022/04/13 14:28:46;;;;;;;4.30;1.60;;;;;;;20.98;nan;105576.16;10404415;28;20041;-70
2022/04/13 14:33:47;;;;;;;5.45;1.60;;;;;;;20.67;nan;105445.84;10422733;28;20467;-71
2022/04/13 14:38:49;;;;;;;5.18;1.90;;;;;;;20.53;nan;105383.91;10411198;28;20033;-70
2022/04/13 14:43:52;;;;;;;8.00;2.13;;;;;;;20.57;nan;105407.19;10409680;28;20087;-68
2022/04/13 14:48:54;;;;;;;6.25;2.45;;;;;;;20.63;nan;105418.13;10409402;28;20049;-69
2022/04/13 14:53:56;;;;;;;7.95;2.08;;;;;;;20.68;nan;105436.13;10405853;28;20048;-69
2022/04/13 14:58:59;;;;;;;6.68;1.90;;;;;;;20.51;nan;105368.69;10420555;28;20045;-68
2022/04/13 15:04:00;;;;;;;6.70;1.83;;;;;;;20.35;nan;105292.50;10410795;28;20458;-68
2022/04/13 15:09:05;;;;;;;7.38;1.92;;;;;;;20.30;nan;105269.25;10417025;28;20519;-68
2022/04/13 15:14:07;;;;;;;8.57;2.85;;;;;;;20.09;nan;105175.09;10409787;28;20041;-68
2022/04/13 15:19:10;;;;;;;8.55;2.80;;;;;;;19.96;nan;105120.38;10415935;28;20064;-72
2022/04/13 15:24:13;;;;;;;6.22;1.98;;;;;;;19.73;nan;105020.88;10404725;28;20068;-69
2022/04/13 15:29:14;;;;;;;8.55;2.45;;;;;;;19.64;nan;104983.25;10405228;28;20415;-69
2022/04/13 15:34:16;;;;;;;6.25;2.63;;;;;;;19.53;nan;104935.81;10391917;28;20074;-73
2022/04/13 15:39:19;;;;;;;6.63;2.60;;;;;;;19.56;nan;104943.91;10399595;28;20084;-73
2022/04/13 15:44:21;;;;;;;8.15;2.53;;;;;;;19.63;nan;104970.78;10405093;28;20042;-73
2022/04/13 15:49:22;;;;;;;8.65;3.30;;;;;;;19.51;nan;104921.50;10413377;28;20046;-74
2022/04/13 15:54:27;;;;;;;10.27;3.40;;;;;;;19.56;nan;104937.66;10405304;28;20049;-74
2022/04/13 15:59:28;;;;;;;5.00;2.38;;;;;;;19.23;nan;104800.69;10412173;28;20046;-74
2022/04/13 16:04:30;;;;;;;10.00;2.55;;;;;;;18.93;nan;104669.16;10405088;28;20045;-71
2022/04/13 16:09:32;;;;;;;8.65;2.22;;;;;;;18.75;nan;104587.84;10411476;28;20049;-72
2022/04/13 16:14:34;;;;;;;5.60;2.47;;;;;;;18.63;nan;104542.16;10404630;28;20501;-74
2022/04/13 16:19:35;;;;;;;7.95;2.60;;;;;;;18.57;nan;104510.06;10401093;28;20075;-74
2022/04/13 16:24:37;;;;;;;7.00;2.55;;;;;;;18.54;nan;104501.13;10396904;28;20041;-73
2022/04/13 16:29:39;;;;;;;5.93;2.42;;;;;;;18.66;nan;104553.84;10411858;28;20049;-74
2022/04/13 16:34:40;;;;;;;4.53;2.30;;;;;;;18.60;nan;104531.41;10417306;28;20460;-74
2022/04/13 16:39:42;;;;;;;9.30;2.38;;;;;;;18.25;nan;104376.94;10426802;28;20041;-74
2022/04/13 16:44:44;;;;;;;8.23;2.15;;;;;;;18.06;nan;104301.91;10422034;28;20083;-74
2022/04/13 16:49:50;;;;;;;4.65;1.95;;;;;;;17.80;nan;104195.63;10425977;28;20037;-74
2022/04/13 16:54:52;;;;;;;2.17;0.70;;;;;;;17.49;nan;104067.19;10415507;28;20056;-74
2022/04/13 16:59:54;;;;;;;5.40;0.90;;;;;;;17.37;nan;104013.72;10432150;28;20071;-74
2022/04/13 17:04:55;;;;;;;6.18;1.10;;;;;;;17.25;nan;103957.59;10425129;28;20045;-73
2022/04/13 17:09:58;;;;;;;4.93;1.00;;;;;;;17.10;nan;103903.19;10423186;28;20047;-73
2022/04/13 17:14:59;;;;;;;2.60;0.95;;;;;;;17.05;nan;103875.63;10422105;28;20556;-74
2022/04/13 17:20:06;;;;;;;3.45;1.25;;;;;;;16.84;nan;103788.31;10418597;28;20064;-73
2022/04/13 17:25:08;;;;;;;4.80;1.92;;;;;;;16.82;nan;103773.25;10415271;28;20047;-73
2022/04/13 17:30:10;;;;;;;4.93;1.80;;;;;;;16.66;nan;103711.78;10411164;28;20515;-74
2022/04/13 17:35:12;;;;;;;6.57;2.00;;;;;;;16.58;nan;103673.56;10405814;28;20058;-74
2022/04/13 17:40:13;;;;;;;3.78;1.52;;;;;;;16.51;nan;103645.06;10417887;28;20044;-74
2022/04/13 17:45:15;;;;;;;7.63;2.25;;;;;;;16.49;nan;103645.00;10420871;28;20500;-74
2022/04/13 17:50:18;;;;;;;12.35;2.80;;;;;;;16.26;nan;103551.59;10419919;28;20044;-74
2022/04/13 17:55:19;;;;;;;8.38;2.60;;;;;;;16.01;nan;103442.31;10335924;28;106884;-74
2022/04/13 18:00:21;;;;;;;6.55;2.47;;;;;;;15.87;nan;103385.44;10388863;28;20053;-76
2022/04/13 18:05:23;;;;;;;9.68;3.10;;;;;;;15.74;nan;103329.44;10374891;28;20536;-76
2022/04/13 18:10:25;;;;;;;10.57;2.58;;;;;;;15.58;nan;103265.47;10388249;28;20045;-75
2022/04/13 18:15:27;;;;;;;11.75;3.15;;;;;;;15.47;nan;103229.00;10367914;28;20046;-75
2022/04/13 18:20:28;;;;;;;7.57;2.53;;;;;;;15.43;nan;103208.59;10370835;28;20038;-75
2022/04/13 18:25:30;;;;;;;7.35;2.28;;;;;;;15.36;nan;103188.13;10373566;28;20402;-75
2022/04/13 18:30:31;;;;;;;6.70;2.17;;;;;;;15.27;nan;103148.22;10381151;28;20049;-75
2022/04/13 18:35:33;;;;;;;9.95;2.00;;;;;;;15.18;nan;103117.13;10379328;28;20224;-75
2022/04/13 18:40:35;;;;;;;12.02;2.85;;;;;;;15.16;nan;103110.88;10381038;28;20402;-74
2022/04/13 18:45:37;;;;;;;7.78;2.00;;;;;;;15.14;nan;103104.66;10377274;28;20421;-74
2022/04/13 18:50:39;;;;;;;7.63;2.28;;;;;;;15.06;nan;103072.72;10374022;28;20053;-74
2022/04/13 18:55:41;;;;;;;11.82;2.83;;;;;;;14.98;nan;103042.53;10381160;28;20043;-74
2022/04/13 19:00:44;;;;;;;5.63;2.22;;;;;;;14.88;nan;103000.84;10375577;28;20071;-74
2022/04/13 19:05:47;;;;;;;9.27;2.63;;;;;;;14.81;nan;102970.72;10370389;28;20123;-74
2022/04/13 19:10:49;;;;;;;9.00;2.40;;;;;;;14.78;nan;102962.72;10380209;28;20655;-74
2022/04/13 19:15:51;;;;;;;9.88;2.33;;;;;;;14.63;nan;102916.50;10369028;28;20441;-74
2022/04/13 19:20:53;;;;;;;6.32;2.50;;;;;;;14.49;nan;102857.13;10378578;28;20041;-75
2022/04/13 19:25:55;;;;;;;10.40;2.75;;;;;;;14.38;nan;102814.59;10370028;28;20512;-76
2022/04/13 19:30:57;;;;;;;9.43;2.22;;;;;;;14.25;nan;102760.56;10367392;28;20046;-80
2022/04/13 19:35:58;;;;;;;11.85;3.95;;;;;;;14.18;nan;102733.97;10379767;28;20041;-80
2022/04/13 19:41:00;;;;;;;10.80;3.58;;;;;;;13.94;nan;102642.75;10389128;28;20046;-81
2022/04/13 19:46:02;;;;;;;7.30;2.30;;;;;;;13.79;nan;102579.94;10393721;28;20057;-81
2022/04/13 19:51:04;;;;;;;8.27;2.90;;;;;;;13.61;nan;102506.53;10391444;28;20046;-81
2022/04/13 19:56:06;;;;;;;10.25;2.63;;;;;;;13.43;nan;102444.56;10386012;28;20034;-81
2022/04/13 20:01:10;;;;;;;6.38;2.20;;;;;;;13.36;nan;102412.75;10383517;28;20041;-81
2022/04/13 20:06:12;;;;;;;6.45;2.47;;;;;;;13.29;nan;102387.09;10386880;28;20053;-79
2022/04/13 20:11:13;;;;;;;6.70;2.70;;;;;;;13.22;nan;102362.31;10385601;28;20038;-78
2022/04/13 20:16:15;;;;;;;6.78;2.28;;;;;;;13.29;nan;102393.25;10376827;28;20041;-78
2022/04/13 20:21:18;;;;;;;6.45;3.42;;;;;;;13.15;nan;102350.72;10361003;28;20046;-79
2022/04/13 20:26:28;;;;;;;5.93;2.53;;;;;;;12.96;nan;102266.84;10346452;28;20056;-76
2022/04/13 20:31:32;;;;;;;9.48;3.25;;;;;;;12.86;nan;102240.25;10357965;28;20061;-76
2022/04/13 20:36:40;;;;;;;8.52;3.97;;;;;;;12.85;nan;102235.88;10353389;28;20033;-76
2022/04/13 20:41:44;;;;;;;8.25;3.08;;;;;;;12.72;nan;102181.13;10362599;28;20517;-76
2022/04/13 20:46:46;;;;;;;9.38;3.00;;;;;;;12.65;nan;102159.00;10354873;28;20042;-76
2022/04/13 20:51:51;;;;;;;10.63;2.88;;;;;;;12.62;nan;102145.78;10376875;28;20527;-77
2022/04/13 20:56:55;;;;;;;7.53;3.08;;;;;;;12.57;nan;102131.63;10372886;28;20602;-76
2022/04/13 21:01:56;;;;;;;6.47;2.70;;;;;;;12.54;nan;102124.53;10370141;28;20034;-76
2022/04/13 21:06:59;;;;;;;8.32;2.97;;;;;;;12.49;nan;102113.00;10366787;28;20072;-76
2022/04/13 21:12:06;;;;;;;9.43;3.20;;;;;;;12.44;nan;102092.69;10361906;28;20041;-76
2022/04/13 21:17:10;;;;;;;10.77;2.80;;;;;;;12.39;nan;102079.41;10366825;28;20144;-76
2022/04/13 21:22:17;;;;;;;8.50;3.10;;;;;;;12.36;nan;102071.44;10372169;28;20627;-74
2022/04/13 21:27:24;;;;;;;6.57;2.95;;;;;;;12.38;nan;102080.25;10372866;28;20144;-73
2022/04/13 21:32:33;;;;;;;9.83;2.80;;;;;;;12.32;nan;102059.06;10364793;28;20072;-74
2022/04/13 21:37:37;;;;;;;8.85;3.40;;;;;;;12.23;nan;102028.16;10370292;28;20464;-75
2022/04/13 21:42:39;;;;;;;8.05;3.08;;;;;;;12.15;nan;101995.53;10363510;28;20513;-75
2022/04/13 21:47:40;;;;;;;9.32;3.10;;;;;;;12.17;nan;102013.13;10361044;28;20688;-76
2022/04/13 21:52:53;;;;;;;8.52;2.95;;;;;;;12.06;nan;101971.66;10368353;28;20038;-76
2022/04/13 21:57:58;;;;;;;9.05;3.80;;;;;;;11.98;nan;101942.50;10369776;28;20061;-75
2022/04/13 22:03:00;;;;;;;5.80;2.92;;;;;;;11.96;nan;101941.59;10378963;28;20398;-74
2022/04/13 22:08:02;;;;;;;9.48;3.40;;;;;;;11.95;nan;101945.03;10378118;28;20459;-74
2022/04/13 22:13:04;;;;;;;8.27;3.20;;;;;;;11.95;nan;101945.03;10372895;28;20547;-74
2022/04/13 22:18:06;;;;;;;6.65;3.10;;;;;;;11.93;nan;101938.88;10376188;28;20045;-75
2022/04/13 22:23:14;;;;;;;6.10;3.10;;;;;;;11.90;nan;101925.63;10374714;28;20040;-75
2022/04/13 22:28:16;;;;;;;10.00;4.28;;;;;;;11.90;nan;101937.00;10350384;28;20428;-74
2022/04/13 22:33:18;;;;;;;8.45;3.42;;;;;;;11.83;nan;101912.31;10367761;28;20029;-74
2022/04/13 22:38:19;;;;;;;9.15;4.05;;;;;;;11.79;nan;101899.94;10370781;28;20077;-77
2022/04/13 22:43:21;;;;;;;8.70;3.70;;;;;;;11.75;nan;101879.69;10361620;28;20686;-78
2022/04/13 22:48:22;;;;;;;13.88;4.03;;;;;;;11.62;nan;101836.50;10371343;28;20057;-77
2022/04/13 22:53:24;;;;;;;8.32;4.18;;;;;;;11.55;nan;101810.03;10356917;28;20045;-77
2022/04/13 22:58:26;;;;;;;9.88;4.88;;;;;;;11.51;nan;101795.91;10376372;28;20064;-78
2022/04/13 23:03:28;;;;;;;9.45;4.05;;;;;;;11.41;nan;101765.00;10363174;28;20527;-77
2022/04/13 23:08:29;;;;;;;14.50;4.47;;;;;;;11.35;nan;101742.16;10374401;28;20444;-76
2022/04/13 23:13:31;;;;;;;12.75;4.55;;;;;;;11.32;nan;101734.19;10381195;28;20050;-77
2022/04/13 23:18:33;;;;;;;11.75;4.72;;;;;;;11.28;nan;101727.97;10386995;28;20073;-79
2022/04/13 23:23:34;;;;;;;12.05;4.80;;;;;;;11.24;nan;101710.34;10381043;28;20519;-78
2022/04/13 23:28:36;;;;;;;8.50;4.00;;;;;;;11.23;nan;101712.94;10379598;28;20045;-76
2022/04/13 23:33:38;;;;;;;12.15;4.13;;;;;;;11.24;nan;101712.09;10375928;28;20040;-77
2022/04/13 23:38:39;;;;;;;7.75;4.00;;;;;;;11.20;nan;101702.34;10379783;28;20058;-77
2022/04/13 23:43:41;;;;;;;9.63;3.70;;;;;;;11.18;nan;101696.19;10372214;28;20564;-78